Aviation Digital Data Service (ADDS)

Output produced by METARs form (0041 UTC 21 July 2017)
found at http://aviationweather.gov/adds/metars/
 
KRUT 202330Z 2100/2124 VRB03KT P6SM SCT150 
     FM211600 28007KT P6SM FEW100